sensor_id;sensor_type;location;lat;lon;timestamp;temperature;humidity
61912;DHT22;49973;52.084;5.412;2024-01-25T00:01:17;8.70;99.90
61912;DHT22;49973;52.084;5.412;2024-01-25T00:03:46;8.50;99.90
61912;DHT22;49973;52.084;5.412;2024-01-25T00:06:15;8.40;99.90
61912;DHT22;49973;52.084;5.412;2024-01-25T00:08:43;8.40;99.90
61912;DHT22;49973;52.084;5.412;2024-01-25T00:11:12;8.30;99.90
61912;DHT22;49973;52.084;5.412;2024-01-25T00:13:42;8.30;99.90
61912;DHT22;49973;52.084;5.412;2024-01-25T00:16:11;8.20;99.90
61912;DHT22;49973;52.084;5.412;2024-01-25T00:18:40;8.20;99.90
61912;DHT22;49973;52.084;5.412;2024-01-25T00:21:08;8.10;99.90
61912;DHT22;49973;52.084;5.412;2024-01-25T00:23:37;8.10;99.90
61912;DHT22;49973;52.084;5.412;2024-01-25T00:26:06;8.00;99.90
61912;DHT22;49973;52.084;5.412;2024-01-25T00:28:34;8.00;99.90
61912;DHT22;49973;52.084;5.412;2024-01-25T00:31:04;8.00;99.90
61912;DHT22;49973;52.084;5.412;2024-01-25T00:33:33;7.90;99.90
61912;DHT22;49973;52.084;5.412;2024-01-25T00:36:02;7.90;99.90
61912;DHT22;49973;52.084;5.412;2024-01-25T00:38:32;7.90;99.90
61912;DHT22;49973;52.084;5.412;2024-01-25T00:41:01;7.80;99.90
61912;DHT22;49973;52.084;5.412;2024-01-25T00:43:30;7.70;99.90
61912;DHT22;49973;52.084;5.412;2024-01-25T00:45:59;7.70;99.90
61912;DHT22;49973;52.084;5.412;2024-01-25T00:48:29;7.60;99.90
61912;DHT22;49973;52.084;5.412;2024-01-25T00:50:59;7.60;99.90
61912;DHT22;49973;52.084;5.412;2024-01-25T00:53:28;7.60;99.90
61912;DHT22;49973;52.084;5.412;2024-01-25T00:55:57;7.60;99.90
61912;DHT22;49973;52.084;5.412;2024-01-25T00:58:26;7.50;99.90
61912;DHT22;49973;52.084;5.412;2024-01-25T01:00:55;7.50;99.90
61912;DHT22;49973;52.084;5.412;2024-01-25T01:03:25;7.40;99.90
61912;DHT22;49973;52.084;5.412;2024-01-25T01:05:56;7.40;99.90
61912;DHT22;49973;52.084;5.412;2024-01-25T01:08:26;7.30;99.90
61912;DHT22;49973;52.084;5.412;2024-01-25T01:10:54;7.20;99.90
61912;DHT22;49973;52.084;5.412;2024-01-25T01:13:23;7.20;99.90
61912;DHT22;49973;52.084;5.412;2024-01-25T01:15:52;7.20;99.90
61912;DHT22;49973;52.084;5.412;2024-01-25T01:18:20;7.20;99.90
61912;DHT22;49973;52.084;5.412;2024-01-25T01:20:49;7.10;99.90
61912;DHT22;49973;52.084;5.412;2024-01-25T01:23:19;7.10;99.90
61912;DHT22;49973;52.084;5.412;2024-01-25T01:25:48;7.00;99.90
61912;DHT22;49973;52.084;5.412;2024-01-25T01:28:16;7.00;99.90
61912;DHT22;49973;52.084;5.412;2024-01-25T01:30:45;7.00;99.90
61912;DHT22;49973;52.084;5.412;2024-01-25T01:33:13;7.00;99.90
61912;DHT22;49973;52.084;5.412;2024-01-25T01:35:42;6.90;99.90
61912;DHT22;49973;52.084;5.412;2024-01-25T01:38:11;6.90;99.90
61912;DHT22;49973;52.084;5.412;2024-01-25T01:40:41;6.80;99.90
61912;DHT22;49973;52.084;5.412;2024-01-25T01:43:18;6.80;99.90
61912;DHT22;49973;52.084;5.412;2024-01-25T01:45:46;6.70;99.90
61912;DHT22;49973;52.084;5.412;2024-01-25T01:48:16;6.70;99.90
61912;DHT22;49973;52.084;5.412;2024-01-25T01:50:45;6.70;99.90
61912;DHT22;49973;52.084;5.412;2024-01-25T01:53:15;6.60;99.90
61912;DHT22;49973;52.084;5.412;2024-01-25T01:55:47;6.60;99.90
61912;DHT22;49973;52.084;5.412;2024-01-25T01:58:18;6.60;99.90
61912;DHT22;49973;52.084;5.412;2024-01-25T02:00:48;6.50;99.90
61912;DHT22;49973;52.084;5.412;2024-01-25T02:03:17;6.50;99.90
61912;DHT22;49973;52.084;5.412;2024-01-25T02:05:46;6.50;99.90
61912;DHT22;49973;52.084;5.412;2024-01-25T02:08:15;6.40;99.90
61912;DHT22;49973;52.084;5.412;2024-01-25T02:10:44;6.50;99.90
61912;DHT22;49973;52.084;5.412;2024-01-25T02:13:14;6.40;99.90
61912;DHT22;49973;52.084;5.412;2024-01-25T02:15:42;6.30;99.90
61912;DHT22;49973;52.084;5.412;2024-01-25T02:18:11;6.30;99.90
61912;DHT22;49973;52.084;5.412;2024-01-25T02:20:39;6.30;99.90
61912;DHT22;49973;52.084;5.412;2024-01-25T02:23:10;6.30;99.90
61912;DHT22;49973;52.084;5.412;2024-01-25T02:25:38;6.20;99.90
61912;DHT22;49973;52.084;5.412;2024-01-25T02:28:07;6.20;99.90
61912;DHT22;49973;52.084;5.412;2024-01-25T02:30:36;6.20;99.90
61912;DHT22;49973;52.084;5.412;2024-01-25T02:33:04;6.10;99.90
61912;DHT22;49973;52.084;5.412;2024-01-25T02:35:33;6.10;99.90
61912;DHT22;49973;52.084;5.412;2024-01-25T02:38:02;6.10;99.90
61912;DHT22;49973;52.084;5.412;2024-01-25T02:40:32;6.00;99.90
61912;DHT22;49973;52.084;5.412;2024-01-25T02:43:01;5.90;99.90
61912;DHT22;49973;52.084;5.412;2024-01-25T02:45:29;5.90;99.90
61912;DHT22;49973;52.084;5.412;2024-01-25T02:47:58;5.90;99.90
61912;DHT22;49973;52.084;5.412;2024-01-25T02:50:29;5.80;99.90
61912;DHT22;49973;52.084;5.412;2024-01-25T02:52:58;5.90;99.90
61912;DHT22;49973;52.084;5.412;2024-01-25T02:55:27;5.80;99.90
61912;DHT22;49973;52.084;5.412;2024-01-25T02:57:57;5.70;99.90
61912;DHT22;49973;52.084;5.412;2024-01-25T03:00:25;5.70;99.90
61912;DHT22;49973;52.084;5.412;2024-01-25T03:02:54;5.70;99.90
61912;DHT22;49973;52.084;5.412;2024-01-25T03:05:23;5.70;99.90
61912;DHT22;49973;52.084;5.412;2024-01-25T03:07:52;5.60;99.90
61912;DHT22;49973;52.084;5.412;2024-01-25T03:10:20;5.60;99.90
61912;DHT22;49973;52.084;5.412;2024-01-25T03:12:49;5.60;99.90
61912;DHT22;49973;52.084;5.412;2024-01-25T03:15:19;5.50;99.90
61912;DHT22;49973;52.084;5.412;2024-01-25T03:17:48;5.50;99.90
61912;DHT22;49973;52.084;5.412;2024-01-25T03:20:16;5.50;99.90
61912;DHT22;49973;52.084;5.412;2024-01-25T03:22:45;5.40;99.90
61912;DHT22;49973;52.084;5.412;2024-01-25T03:25:14;5.40;99.90
61912;DHT22;49973;52.084;5.412;2024-01-25T03:27:43;5.40;99.90
61912;DHT22;49973;52.084;5.412;2024-01-25T03:30:12;5.30;99.90
61912;DHT22;49973;52.084;5.412;2024-01-25T03:32:42;5.30;99.90
61912;DHT22;49973;52.084;5.412;2024-01-25T03:35:10;5.20;99.90
61912;DHT22;49973;52.084;5.412;2024-01-25T03:37:39;5.20;99.90
61912;DHT22;49973;52.084;5.412;2024-01-25T03:40:09;5.20;99.90
61912;DHT22;49973;52.084;5.412;2024-01-25T03:42:37;5.10;99.90
61912;DHT22;49973;52.084;5.412;2024-01-25T03:45:07;5.00;99.90
61912;DHT22;49973;52.084;5.412;2024-01-25T03:47:36;5.00;99.90
61912;DHT22;49973;52.084;5.412;2024-01-25T03:50:06;4.90;99.90
61912;DHT22;49973;52.084;5.412;2024-01-25T03:52:35;4.90;99.90
61912;DHT22;49973;52.084;5.412;2024-01-25T03:55:04;4.90;99.90
61912;DHT22;49973;52.084;5.412;2024-01-25T03:57:33;4.80;99.90
61912;DHT22;49973;52.084;5.412;2024-01-25T04:00:04;4.80;99.90
61912;DHT22;49973;52.084;5.412;2024-01-25T04:02:33;4.80;99.90
61912;DHT22;49973;52.084;5.412;2024-01-25T04:05:01;4.80;99.90
61912;DHT22;49973;52.084;5.412;2024-01-25T04:07:31;4.70;99.90
61912;DHT22;49973;52.084;5.412;2024-01-25T04:10:00;4.70;99.90
61912;DHT22;49973;52.084;5.412;2024-01-25T04:12:29;4.80;99.90
61912;DHT22;49973;52.084;5.412;2024-01-25T04:14:58;4.60;99.90
61912;DHT22;49973;52.084;5.412;2024-01-25T04:17:27;4.60;99.90
61912;DHT22;49973;52.084;5.412;2024-01-25T04:19:55;4.60;99.90
61912;DHT22;49973;52.084;5.412;2024-01-25T04:22:24;4.50;99.90
61912;DHT22;49973;52.084;5.412;2024-01-25T04:24:54;4.50;99.90
61912;DHT22;49973;52.084;5.412;2024-01-25T04:27:22;4.50;99.90
61912;DHT22;49973;52.084;5.412;2024-01-25T04:29:51;4.50;99.90
61912;DHT22;49973;52.084;5.412;2024-01-25T04:32:19;4.50;99.90
61912;DHT22;49973;52.084;5.412;2024-01-25T04:34:48;4.40;99.90
61912;DHT22;49973;52.084;5.412;2024-01-25T04:37:17;4.40;99.90
61912;DHT22;49973;52.084;5.412;2024-01-25T04:39:46;4.40;99.90
61912;DHT22;49973;52.084;5.412;2024-01-25T04:42:16;4.40;99.90
61912;DHT22;49973;52.084;5.412;2024-01-25T04:44:45;4.40;99.90
61912;DHT22;49973;52.084;5.412;2024-01-25T04:47:14;4.30;99.90
61912;DHT22;49973;52.084;5.412;2024-01-25T04:49:42;4.30;99.90
61912;DHT22;49973;52.084;5.412;2024-01-25T04:52:12;4.30;99.90
61912;DHT22;49973;52.084;5.412;2024-01-25T04:54:40;4.50;99.90
61912;DHT22;49973;52.084;5.412;2024-01-25T04:57:09;4.30;99.90
61912;DHT22;49973;52.084;5.412;2024-01-25T04:59:39;4.40;99.90
61912;DHT22;49973;52.084;5.412;2024-01-25T05:02:08;4.30;99.90
61912;DHT22;49973;52.084;5.412;2024-01-25T05:04:36;4.20;99.90
61912;DHT22;49973;52.084;5.412;2024-01-25T05:07:06;4.20;99.90
61912;DHT22;49973;52.084;5.412;2024-01-25T05:09:34;4.30;99.90
61912;DHT22;49973;52.084;5.412;2024-01-25T05:12:03;4.30;99.90
61912;DHT22;49973;52.084;5.412;2024-01-25T05:14:32;4.20;99.90
61912;DHT22;49973;52.084;5.412;2024-01-25T05:17:02;4.30;99.90
61912;DHT22;49973;52.084;5.412;2024-01-25T05:19:31;4.30;99.90
61912;DHT22;49973;52.084;5.412;2024-01-25T05:21:59;4.20;99.90
61912;DHT22;49973;52.084;5.412;2024-01-25T05:24:33;4.20;99.90
61912;DHT22;49973;52.084;5.412;2024-01-25T05:27:02;4.30;99.90
61912;DHT22;49973;52.084;5.412;2024-01-25T05:29:31;4.30;99.90
61912;DHT22;49973;52.084;5.412;2024-01-25T05:32:00;4.30;99.90
61912;DHT22;49973;52.084;5.412;2024-01-25T05:34:29;4.20;99.90
61912;DHT22;49973;52.084;5.412;2024-01-25T05:36:58;4.30;99.90
61912;DHT22;49973;52.084;5.412;2024-01-25T05:39:27;4.20;99.90
61912;DHT22;49973;52.084;5.412;2024-01-25T05:41:55;4.20;99.90
61912;DHT22;49973;52.084;5.412;2024-01-25T05:44:24;4.20;99.90
61912;DHT22;49973;52.084;5.412;2024-01-25T05:46:53;4.20;99.90
61912;DHT22;49973;52.084;5.412;2024-01-25T05:49:21;4.20;99.90
61912;DHT22;49973;52.084;5.412;2024-01-25T05:51:52;4.20;99.90
61912;DHT22;49973;52.084;5.412;2024-01-25T05:54:20;4.20;99.90
61912;DHT22;49973;52.084;5.412;2024-01-25T05:56:49;4.20;99.90
61912;DHT22;49973;52.084;5.412;2024-01-25T05:59:17;4.20;99.90
61912;DHT22;49973;52.084;5.412;2024-01-25T06:01:46;4.20;99.90
61912;DHT22;49973;52.084;5.412;2024-01-25T06:04:15;4.10;99.90
61912;DHT22;49973;52.084;5.412;2024-01-25T06:06:44;4.20;99.90
61912;DHT22;49973;52.084;5.412;2024-01-25T06:09:14;4.10;99.90
61912;DHT22;49973;52.084;5.412;2024-01-25T06:11:47;4.20;99.90
61912;DHT22;49973;52.084;5.412;2024-01-25T06:14:16;4.10;99.90
61912;DHT22;49973;52.084;5.412;2024-01-25T06:16:44;4.10;99.90
61912;DHT22;49973;52.084;5.412;2024-01-25T06:19:13;4.20;99.90
61912;DHT22;49973;52.084;5.412;2024-01-25T06:21:42;4.10;99.90
61912;DHT22;49973;52.084;5.412;2024-01-25T06:24:10;4.10;99.90
61912;DHT22;49973;52.084;5.412;2024-01-25T06:26:40;4.10;99.90
61912;DHT22;49973;52.084;5.412;2024-01-25T06:29:09;4.10;99.90
61912;DHT22;49973;52.084;5.412;2024-01-25T06:31:41;4.10;99.90
61912;DHT22;49973;52.084;5.412;2024-01-25T06:34:11;4.10;99.90
61912;DHT22;49973;52.084;5.412;2024-01-25T06:36:40;4.10;99.90
61912;DHT22;49973;52.084;5.412;2024-01-25T06:39:09;4.00;99.90
61912;DHT22;49973;52.084;5.412;2024-01-25T06:41:37;4.00;99.90
61912;DHT22;49973;52.084;5.412;2024-01-25T06:44:07;4.00;99.90
61912;DHT22;49973;52.084;5.412;2024-01-25T06:46:36;4.00;99.90
61912;DHT22;49973;52.084;5.412;2024-01-25T06:49:05;4.00;99.90
61912;DHT22;49973;52.084;5.412;2024-01-25T06:51:34;4.00;99.90
61912;DHT22;49973;52.084;5.412;2024-01-25T06:54:03;4.00;99.90
61912;DHT22;49973;52.084;5.412;2024-01-25T06:56:32;4.00;99.90
61912;DHT22;49973;52.084;5.412;2024-01-25T06:59:02;4.20;99.90
61912;DHT22;49973;52.084;5.412;2024-01-25T07:01:32;4.00;99.90
61912;DHT22;49973;52.084;5.412;2024-01-25T07:04:01;4.00;99.90
61912;DHT22;49973;52.084;5.412;2024-01-25T07:06:31;4.00;99.90
61912;DHT22;49973;52.084;5.412;2024-01-25T07:09:00;4.10;99.90
61912;DHT22;49973;52.084;5.412;2024-01-25T07:11:29;4.00;99.90
61912;DHT22;49973;52.084;5.412;2024-01-25T07:13:58;4.10;99.90
61912;DHT22;49973;52.084;5.412;2024-01-25T07:16:27;4.00;99.90
61912;DHT22;49973;52.084;5.412;2024-01-25T07:18:59;4.00;99.90
61912;DHT22;49973;52.084;5.412;2024-01-25T07:21:28;4.00;99.90
61912;DHT22;49973;52.084;5.412;2024-01-25T07:24:01;4.00;99.90
61912;DHT22;49973;52.084;5.412;2024-01-25T07:26:31;4.00;99.90
61912;DHT22;49973;52.084;5.412;2024-01-25T07:29:00;4.00;99.90
61912;DHT22;49973;52.084;5.412;2024-01-25T07:31:28;4.10;99.90
61912;DHT22;49973;52.084;5.412;2024-01-25T07:33:58;4.10;99.90
61912;DHT22;49973;52.084;5.412;2024-01-25T07:36:27;4.10;99.90
61912;DHT22;49973;52.084;5.412;2024-01-25T07:38:56;4.20;99.90
61912;DHT22;49973;52.084;5.412;2024-01-25T07:41:25;4.20;99.90
61912;DHT22;49973;52.084;5.412;2024-01-25T07:43:54;4.20;99.90
61912;DHT22;49973;52.084;5.412;2024-01-25T07:46:22;4.30;99.90
61912;DHT22;49973;52.084;5.412;2024-01-25T07:48:52;4.30;99.90
61912;DHT22;49973;52.084;5.412;2024-01-25T07:51:22;4.50;99.90
61912;DHT22;49973;52.084;5.412;2024-01-25T07:53:55;4.30;99.90
61912;DHT22;49973;52.084;5.412;2024-01-25T07:56:24;4.40;99.90
61912;DHT22;49973;52.084;5.412;2024-01-25T07:58:52;4.40;99.90
61912;DHT22;49973;52.084;5.412;2024-01-25T08:01:21;4.40;99.90
61912;DHT22;49973;52.084;5.412;2024-01-25T08:03:50;4.40;99.90
61912;DHT22;49973;52.084;5.412;2024-01-25T08:06:19;4.50;99.90
61912;DHT22;49973;52.084;5.412;2024-01-25T08:08:49;4.50;99.90
61912;DHT22;49973;52.084;5.412;2024-01-25T08:11:20;4.60;99.90
61912;DHT22;49973;52.084;5.412;2024-01-25T08:13:48;4.60;99.90
61912;DHT22;49973;52.084;5.412;2024-01-25T08:16:18;4.60;99.90
61912;DHT22;49973;52.084;5.412;2024-01-25T08:18:50;4.80;99.90
61912;DHT22;49973;52.084;5.412;2024-01-25T08:21:19;4.80;99.90
61912;DHT22;49973;52.084;5.412;2024-01-25T08:23:50;4.80;99.90
61912;DHT22;49973;52.084;5.412;2024-01-25T08:26:18;4.80;99.90
61912;DHT22;49973;52.084;5.412;2024-01-25T08:28:47;4.80;99.90
61912;DHT22;49973;52.084;5.412;2024-01-25T08:31:16;4.90;99.90
61912;DHT22;49973;52.084;5.412;2024-01-25T08:33:45;5.00;99.90
61912;DHT22;49973;52.084;5.412;2024-01-25T08:36:17;5.00;99.90
61912;DHT22;49973;52.084;5.412;2024-01-25T08:38:46;5.10;99.90
61912;DHT22;49973;52.084;5.412;2024-01-25T08:41:16;5.20;99.90
61912;DHT22;49973;52.084;5.412;2024-01-25T08:43:44;5.20;99.90
61912;DHT22;49973;52.084;5.412;2024-01-25T08:46:13;5.30;99.90
61912;DHT22;49973;52.084;5.412;2024-01-25T08:48:43;5.40;99.90
61912;DHT22;49973;52.084;5.412;2024-01-25T08:51:12;5.40;99.90
61912;DHT22;49973;52.084;5.412;2024-01-25T08:53:40;5.50;99.90
61912;DHT22;49973;52.084;5.412;2024-01-25T08:56:09;5.60;99.90
61912;DHT22;49973;52.084;5.412;2024-01-25T08:58:39;5.70;99.90
61912;DHT22;49973;52.084;5.412;2024-01-25T09:01:08;5.80;99.90
61912;DHT22;49973;52.084;5.412;2024-01-25T09:03:37;5.90;99.90
61912;DHT22;49973;52.084;5.412;2024-01-25T09:06:06;5.90;99.90
61912;DHT22;49973;52.084;5.412;2024-01-25T09:08:34;6.00;99.90
61912;DHT22;49973;52.084;5.412;2024-01-25T09:11:03;6.20;99.90
61912;DHT22;49973;52.084;5.412;2024-01-25T09:13:32;6.30;99.90
61912;DHT22;49973;52.084;5.412;2024-01-25T09:16:15;6.40;99.90
61912;DHT22;49973;52.084;5.412;2024-01-25T09:18:44;6.40;99.90
61912;DHT22;49973;52.084;5.412;2024-01-25T09:21:13;6.50;99.90
61912;DHT22;49973;52.084;5.412;2024-01-25T09:23:41;6.50;99.90
61912;DHT22;49973;52.084;5.412;2024-01-25T09:26:10;6.60;99.90
61912;DHT22;49973;52.084;5.412;2024-01-25T09:28:38;6.70;99.90
61912;DHT22;49973;52.084;5.412;2024-01-25T09:31:07;6.80;99.90
61912;DHT22;49973;52.084;5.412;2024-01-25T09:33:38;6.80;99.90
61912;DHT22;49973;52.084;5.412;2024-01-25T09:36:07;7.00;99.90
61912;DHT22;49973;52.084;5.412;2024-01-25T09:38:37;7.10;99.90
61912;DHT22;49973;52.084;5.412;2024-01-25T09:41:06;7.30;99.90
61912;DHT22;49973;52.084;5.412;2024-01-25T09:43:35;7.30;99.90
61912;DHT22;49973;52.084;5.412;2024-01-25T09:46:05;7.30;99.90
61912;DHT22;49973;52.084;5.412;2024-01-25T09:48:38;7.40;99.90
61912;DHT22;49973;52.084;5.412;2024-01-25T09:51:11;7.50;99.90
61912;DHT22;49973;52.084;5.412;2024-01-25T09:53:41;7.50;99.90
61912;DHT22;49973;52.084;5.412;2024-01-25T09:56:12;7.60;99.90
61912;DHT22;49973;52.084;5.412;2024-01-25T09:58:42;7.60;99.90
61912;DHT22;49973;52.084;5.412;2024-01-25T10:01:14;7.70;99.90
61912;DHT22;49973;52.084;5.412;2024-01-25T10:03:45;7.80;99.90
61912;DHT22;49973;52.084;5.412;2024-01-25T10:06:15;7.80;99.90
61912;DHT22;49973;52.084;5.412;2024-01-25T10:08:44;7.90;99.90
61912;DHT22;49973;52.084;5.412;2024-01-25T10:11:14;8.00;99.90
61912;DHT22;49973;52.084;5.412;2024-01-25T10:13:43;8.00;99.90
61912;DHT22;49973;52.084;5.412;2024-01-25T10:16:12;8.00;99.90
61912;DHT22;49973;52.084;5.412;2024-01-25T10:18:42;8.00;99.90
61912;DHT22;49973;52.084;5.412;2024-01-25T10:21:14;8.10;99.90
61912;DHT22;49973;52.084;5.412;2024-01-25T10:23:44;8.10;99.90
61912;DHT22;49973;52.084;5.412;2024-01-25T10:26:15;8.20;99.90
61912;DHT22;49973;52.084;5.412;2024-01-25T10:28:51;8.30;99.90
61912;DHT22;49973;52.084;5.412;2024-01-25T10:31:25;8.50;99.90
61912;DHT22;49973;52.084;5.412;2024-01-25T10:33:54;8.60;99.90
61912;DHT22;49973;52.084;5.412;2024-01-25T10:36:27;8.80;99.90
61912;DHT22;49973;52.084;5.412;2024-01-25T10:38:59;8.90;99.90
61912;DHT22;49973;52.084;5.412;2024-01-25T10:41:32;9.00;99.90
61912;DHT22;49973;52.084;5.412;2024-01-25T10:44:03;9.00;99.90
61912;DHT22;49973;52.084;5.412;2024-01-25T10:46:34;9.10;99.90
61912;DHT22;49973;52.084;5.412;2024-01-25T10:49:03;9.20;99.90
61912;DHT22;49973;52.084;5.412;2024-01-25T10:51:35;9.20;99.90
61912;DHT22;49973;52.084;5.412;2024-01-25T10:54:04;9.20;99.90
61912;DHT22;49973;52.084;5.412;2024-01-25T10:56:34;9.20;99.90
61912;DHT22;49973;52.084;5.412;2024-01-25T10:59:04;9.20;99.90
61912;DHT22;49973;52.084;5.412;2024-01-25T11:01:33;9.30;99.90
61912;DHT22;49973;52.084;5.412;2024-01-25T11:04:03;9.40;99.90
61912;DHT22;49973;52.084;5.412;2024-01-25T11:06:32;9.50;99.90
61912;DHT22;49973;52.084;5.412;2024-01-25T11:09:07;9.60;99.90
61912;DHT22;49973;52.084;5.412;2024-01-25T11:11:37;9.60;99.90
61912;DHT22;49973;52.084;5.412;2024-01-25T11:14:11;9.50;99.90
61912;DHT22;49973;52.084;5.412;2024-01-25T11:16:40;9.50;99.90
61912;DHT22;49973;52.084;5.412;2024-01-25T11:19:22;9.40;99.90
61912;DHT22;49973;52.084;5.412;2024-01-25T11:21:52;9.40;99.90
61912;DHT22;49973;52.084;5.412;2024-01-25T11:24:23;9.40;99.90
61912;DHT22;49973;52.084;5.412;2024-01-25T11:26:54;9.40;99.90
61912;DHT22;49973;52.084;5.412;2024-01-25T11:29:23;9.60;99.90
61912;DHT22;49973;52.084;5.412;2024-01-25T11:31:52;9.50;99.90
61912;DHT22;49973;52.084;5.412;2024-01-25T11:34:21;9.50;99.90
61912;DHT22;49973;52.084;5.412;2024-01-25T11:36:50;9.50;99.90
61912;DHT22;49973;52.084;5.412;2024-01-25T11:39:19;9.50;99.90
61912;DHT22;49973;52.084;5.412;2024-01-25T11:41:51;9.50;99.90
61912;DHT22;49973;52.084;5.412;2024-01-25T11:44:20;9.50;99.90
61912;DHT22;49973;52.084;5.412;2024-01-25T11:46:54;9.60;99.90
61912;DHT22;49973;52.084;5.412;2024-01-25T11:49:23;9.60;99.90
61912;DHT22;49973;52.084;5.412;2024-01-25T11:51:53;9.60;99.90
61912;DHT22;49973;52.084;5.412;2024-01-25T11:54:21;9.70;99.90
61912;DHT22;49973;52.084;5.412;2024-01-25T11:56:52;9.70;99.90
61912;DHT22;49973;52.084;5.412;2024-01-25T11:59:21;9.70;99.90
61912;DHT22;49973;52.084;5.412;2024-01-25T12:01:49;9.70;99.90
61912;DHT22;49973;52.084;5.412;2024-01-25T12:04:18;9.60;99.90
61912;DHT22;49973;52.084;5.412;2024-01-25T12:06:47;9.60;99.90
61912;DHT22;49973;52.084;5.412;2024-01-25T12:09:17;9.60;99.90
61912;DHT22;49973;52.084;5.412;2024-01-25T12:11:49;9.50;99.90
61912;DHT22;49973;52.084;5.412;2024-01-25T12:14:20;9.50;99.90
61912;DHT22;49973;52.084;5.412;2024-01-25T12:16:49;9.50;99.90
61912;DHT22;49973;52.084;5.412;2024-01-25T12:19:18;9.50;99.90
61912;DHT22;49973;52.084;5.412;2024-01-25T12:21:47;9.50;99.90
61912;DHT22;49973;52.084;5.412;2024-01-25T12:24:15;9.60;99.90
61912;DHT22;49973;52.084;5.412;2024-01-25T12:26:44;9.70;99.90
61912;DHT22;49973;52.084;5.412;2024-01-25T12:29:13;9.70;99.90
61912;DHT22;49973;52.084;5.412;2024-01-25T12:31:43;9.80;99.90
61912;DHT22;49973;52.084;5.412;2024-01-25T12:34:13;9.80;99.90
61912;DHT22;49973;52.084;5.412;2024-01-25T12:36:43;9.90;99.90
61912;DHT22;49973;52.084;5.412;2024-01-25T12:39:12;10.00;99.90
61912;DHT22;49973;52.084;5.412;2024-01-25T12:41:46;10.10;99.90
61912;DHT22;49973;52.084;5.412;2024-01-25T12:44:16;10.10;99.90
61912;DHT22;49973;52.084;5.412;2024-01-25T12:46:46;10.20;99.90
61912;DHT22;49973;52.084;5.412;2024-01-25T12:49:15;10.20;99.90
61912;DHT22;49973;52.084;5.412;2024-01-25T12:51:44;10.20;99.90
61912;DHT22;49973;52.084;5.412;2024-01-25T12:54:13;10.20;99.90
61912;DHT22;49973;52.084;5.412;2024-01-25T12:56:41;10.20;99.90
61912;DHT22;49973;52.084;5.412;2024-01-25T12:59:10;10.20;99.90
61912;DHT22;49973;52.084;5.412;2024-01-25T13:01:39;10.20;99.90
61912;DHT22;49973;52.084;5.412;2024-01-25T13:04:10;10.20;99.90
61912;DHT22;49973;52.084;5.412;2024-01-25T13:06:39;10.40;99.90
61912;DHT22;49973;52.084;5.412;2024-01-25T13:09:07;10.30;99.90
61912;DHT22;49973;52.084;5.412;2024-01-25T13:11:36;10.50;99.90
61912;DHT22;49973;52.084;5.412;2024-01-25T13:14:05;10.30;99.90
61912;DHT22;49973;52.084;5.412;2024-01-25T13:16:33;10.20;99.90
61912;DHT22;49973;52.084;5.412;2024-01-25T13:19:02;10.20;99.90
61912;DHT22;49973;52.084;5.412;2024-01-25T13:21:32;10.20;99.90
61912;DHT22;49973;52.084;5.412;2024-01-25T13:24:01;10.20;99.90
61912;DHT22;49973;52.084;5.412;2024-01-25T13:26:29;10.00;99.90
61912;DHT22;49973;52.084;5.412;2024-01-25T13:28:58;10.10;99.90
61912;DHT22;49973;52.084;5.412;2024-01-25T13:31:27;10.10;99.90
61912;DHT22;49973;52.084;5.412;2024-01-25T13:33:55;10.10;99.90
61912;DHT22;49973;52.084;5.412;2024-01-25T13:36:24;10.00;99.90
61912;DHT22;49973;52.084;5.412;2024-01-25T13:38:54;9.90;99.90
61912;DHT22;49973;52.084;5.412;2024-01-25T13:41:23;9.90;99.90
61912;DHT22;49973;52.084;5.412;2024-01-25T13:43:51;9.80;99.90
61912;DHT22;49973;52.084;5.412;2024-01-25T13:46:20;9.70;99.90
61912;DHT22;49973;52.084;5.412;2024-01-25T13:48:51;9.70;99.90
61912;DHT22;49973;52.084;5.412;2024-01-25T13:51:20;9.70;99.90
61912;DHT22;49973;52.084;5.412;2024-01-25T13:53:49;9.60;99.90
61912;DHT22;49973;52.084;5.412;2024-01-25T13:56:19;9.50;99.90
61912;DHT22;49973;52.084;5.412;2024-01-25T13:58:48;9.40;99.90
61912;DHT22;49973;52.084;5.412;2024-01-25T14:01:16;9.40;99.90
61912;DHT22;49973;52.084;5.412;2024-01-25T14:03:45;9.40;99.90
61912;DHT22;49973;52.084;5.412;2024-01-25T14:06:14;9.30;99.90
61912;DHT22;49973;52.084;5.412;2024-01-25T14:08:43;9.20;99.90
61912;DHT22;49973;52.084;5.412;2024-01-25T14:11:11;9.30;99.90
61912;DHT22;49973;52.084;5.412;2024-01-25T14:13:42;9.40;99.90
61912;DHT22;49973;52.084;5.412;2024-01-25T14:16:10;9.30;99.90
61912;DHT22;49973;52.084;5.412;2024-01-25T14:18:44;9.30;99.90
61912;DHT22;49973;52.084;5.412;2024-01-25T14:21:13;9.30;99.90
61912;DHT22;49973;52.084;5.412;2024-01-25T14:23:43;9.30;99.90
61912;DHT22;49973;52.084;5.412;2024-01-25T14:26:12;9.30;99.90
61912;DHT22;49973;52.084;5.412;2024-01-25T14:28:42;9.30;99.90
61912;DHT22;49973;52.084;5.412;2024-01-25T14:31:11;9.30;99.90
61912;DHT22;49973;52.084;5.412;2024-01-25T14:33:40;9.30;99.90
61912;DHT22;49973;52.084;5.412;2024-01-25T14:36:13;9.20;99.90
61912;DHT22;49973;52.084;5.412;2024-01-25T14:38:42;9.20;99.90
61912;DHT22;49973;52.084;5.412;2024-01-25T14:41:11;9.20;99.90
61912;DHT22;49973;52.084;5.412;2024-01-25T14:43:39;9.20;99.90
61912;DHT22;49973;52.084;5.412;2024-01-25T14:46:10;9.20;99.90
61912;DHT22;49973;52.084;5.412;2024-01-25T14:48:39;9.20;99.90
61912;DHT22;49973;52.084;5.412;2024-01-25T14:51:08;9.10;99.90
61912;DHT22;49973;52.084;5.412;2024-01-25T14:53:36;9.20;99.90
61912;DHT22;49973;52.084;5.412;2024-01-25T14:56:05;9.10;99.90
61912;DHT22;49973;52.084;5.412;2024-01-25T14:58:34;9.10;99.90
61912;DHT22;49973;52.084;5.412;2024-01-25T15:01:03;9.00;99.90
61912;DHT22;49973;52.084;5.412;2024-01-25T15:03:34;9.00;99.90
61912;DHT22;49973;52.084;5.412;2024-01-25T15:06:03;8.90;99.90
61912;DHT22;49973;52.084;5.412;2024-01-25T15:08:31;8.90;99.90
61912;DHT22;49973;52.084;5.412;2024-01-25T15:11:00;8.80;99.90
61912;DHT22;49973;52.084;5.412;2024-01-25T15:13:30;8.70;99.90
61912;DHT22;49973;52.084;5.412;2024-01-25T15:15:58;8.70;99.90
61912;DHT22;49973;52.084;5.412;2024-01-25T15:18:27;8.60;99.90
61912;DHT22;49973;52.084;5.412;2024-01-25T15:20:58;8.50;99.90
61912;DHT22;49973;52.084;5.412;2024-01-25T15:23:26;8.50;99.90
61912;DHT22;49973;52.084;5.412;2024-01-25T15:25:56;8.40;99.90
61912;DHT22;49973;52.084;5.412;2024-01-25T15:28:25;8.40;99.90
61912;DHT22;49973;52.084;5.412;2024-01-25T15:30:54;8.40;99.90
61912;DHT22;49973;52.084;5.412;2024-01-25T15:33:22;8.30;99.90
61912;DHT22;49973;52.084;5.412;2024-01-25T15:35:51;8.30;99.90
61912;DHT22;49973;52.084;5.412;2024-01-25T15:38:21;8.30;99.90
61912;DHT22;49973;52.084;5.412;2024-01-25T15:40:50;8.20;99.90
61912;DHT22;49973;52.084;5.412;2024-01-25T15:43:19;8.20;99.90
61912;DHT22;49973;52.084;5.412;2024-01-25T15:45:47;8.20;99.90
61912;DHT22;49973;52.084;5.412;2024-01-25T15:48:16;8.20;99.90
61912;DHT22;49973;52.084;5.412;2024-01-25T15:50:44;8.20;99.90
61912;DHT22;49973;52.084;5.412;2024-01-25T15:53:13;8.10;99.90
61912;DHT22;49973;52.084;5.412;2024-01-25T15:55:44;8.10;99.90
61912;DHT22;49973;52.084;5.412;2024-01-25T15:58:13;8.10;99.90